createdAt,value
2022-12-11T00:05:00.297Z,0.63
2022-12-11T00:11:23.222Z,0.63
2022-12-11T00:17:43.221Z,0.67
2022-12-11T00:24:06.183Z,0.73
2022-12-11T00:30:26.230Z,0.75
2022-12-11T00:36:49.173Z,0.66
2022-12-11T00:43:09.192Z,0.66
2022-12-11T00:49:32.130Z,0.56
2022-12-11T00:55:52.276Z,0.56
2022-12-11T01:02:15.168Z,0.56
2022-12-11T01:08:38.423Z,0.53
2022-12-11T01:14:58.287Z,0.54
2022-12-11T01:21:18.192Z,0.6
2022-12-11T01:27:41.172Z,0.68
2022-12-11T01:34:01.223Z,0.64
2022-12-11T01:40:24.248Z,0.61
2022-12-11T01:46:44.277Z,0.65
2022-12-11T01:53:07.219Z,0.7
2022-12-11T01:59:27.213Z,0.74
2022-12-11T02:05:50.263Z,0.77
2022-12-11T02:12:10.226Z,0.83
2022-12-11T02:18:33.249Z,0.89
2022-12-11T02:24:53.301Z,0.93
2022-12-11T02:31:16.229Z,0.94
2022-12-11T02:37:36.182Z,0.98
2022-12-11T02:43:59.304Z,0.99
2022-12-11T02:50:25.115Z,0.93
2022-12-11T02:56:42.181Z,0.91
2022-12-11T03:03:02.180Z,0.91
2022-12-11T03:09:25.221Z,0.89
2022-12-11T03:15:45.347Z,0.92
2022-12-11T03:22:08.199Z,0.93
2022-12-11T03:28:28.210Z,0.93
2022-12-11T03:34:54.525Z,0.87
2022-12-11T03:41:11.291Z,0.83
2022-12-11T03:47:34.203Z,0.88
2022-12-11T03:53:54.386Z,0.97
2022-12-11T04:00:17.176Z,0.93
2022-12-11T04:16:24.043Z,0.78
2022-12-11T04:22:44.173Z,0.7
2022-12-11T04:29:07.168Z,0.67
2022-12-11T04:35:27.249Z,0.67
2022-12-11T04:41:50.169Z,0.72
2022-12-11T04:48:10.154Z,0.73
2022-12-11T04:54:33.251Z,0.7
2022-12-11T05:00:53.169Z,0.73
2022-12-11T05:07:16.129Z,0.81
2022-12-11T05:13:36.287Z,0.88
2022-12-11T05:19:59.159Z,0.96
2022-12-11T05:26:19.138Z,1.06
2022-12-11T05:32:42.227Z,1.04
2022-12-11T05:39:02.149Z,1.04
2022-12-11T05:45:25.167Z,1
2022-12-11T05:51:45.188Z,1.02
2022-12-11T05:58:08.207Z,1.03
2022-12-11T06:04:28.225Z,1.05
2022-12-11T06:10:51.265Z,1.01
2022-12-11T06:17:11.210Z,0.98
2022-12-11T06:23:34.145Z,0.97
2022-12-11T06:29:54.179Z,0.99
2022-12-11T06:36:17.202Z,0.99
2022-12-11T06:42:37.175Z,0.96
2022-12-11T06:49:00.191Z,0.91
2022-12-11T06:55:20.163Z,0.89
2022-12-11T07:01:43.185Z,0.95
2022-12-11T07:08:03.343Z,1.05
2022-12-11T07:14:26.280Z,1.11
2022-12-11T07:20:46.225Z,1.14
2022-12-11T07:27:09.265Z,1.04
2022-12-11T07:33:29.168Z,1.04
2022-12-11T07:39:52.259Z,1.1
2022-12-11T07:46:12.251Z,1.13
2022-12-11T07:52:35.244Z,1.17
2022-12-11T07:58:55.239Z,1.16
2022-12-11T08:05:18.467Z,1.18
2022-12-11T08:11:38.245Z,1.19
2022-12-11T08:18:01.175Z,1.2
2022-12-11T08:24:21.163Z,1.24
2022-12-11T08:30:44.275Z,1.23
2022-12-11T08:37:04.207Z,1.16
2022-12-11T08:43:27.247Z,1.17
2022-12-11T08:49:47.142Z,1.25
2022-12-11T08:56:10.165Z,1.29
2022-12-11T09:02:30.420Z,1.34
2022-12-11T09:26:13.174Z,1.48
2022-12-11T09:32:36.157Z,1.63
2022-12-11T09:38:56.221Z,1.68
2022-12-11T09:45:19.270Z,1.68
2022-12-11T09:51:39.322Z,1.73
2022-12-11T09:58:02.187Z,1.72
2022-12-11T10:04:22.188Z,1.68
2022-12-11T10:10:45.179Z,1.73
2022-12-11T10:17:05.227Z,1.79
2022-12-11T10:23:28.212Z,1.91
2022-12-11T10:29:48.259Z,1.98
2022-12-11T10:36:11.195Z,1.98
2022-12-11T10:42:31.409Z,2.05
2022-12-11T10:48:54.200Z,2.2
2022-12-11T10:55:14.188Z,2.35
2022-12-11T11:01:37.301Z,2.45
2022-12-11T11:07:57.174Z,2.47
2022-12-11T11:14:20.213Z,2.46
2022-12-11T11:20:40.170Z,2.51
2022-12-11T11:27:18.528Z,2.59
2022-12-11T11:33:23.156Z,2.6
2022-12-11T11:39:46.166Z,2.58
2022-12-11T11:46:06.350Z,2.56
2022-12-11T11:52:29.153Z,2.53
2022-12-11T11:58:49.261Z,2.52
2022-12-11T12:05:12.503Z,2.69
2022-12-11T12:11:32.175Z,2.83
2022-12-11T12:17:56.242Z,2.86
2022-12-11T12:24:15.177Z,2.91
2022-12-11T12:30:38.353Z,2.89
2022-12-11T12:36:58.432Z,2.87
2022-12-11T12:43:21.231Z,2.79
2022-12-11T12:49:41.258Z,2.72
2022-12-11T12:56:04.201Z,2.69
2022-12-11T13:02:24.334Z,2.58
2022-12-11T13:08:47.180Z,2.53
2022-12-11T13:15:07.232Z,2.53
2022-12-11T13:21:30.266Z,2.58
2022-12-11T13:27:50.168Z,2.63
2022-12-11T13:34:13.329Z,2.63
2022-12-11T13:40:33.240Z,2.63
2022-12-11T13:46:56.266Z,2.59
2022-12-11T13:53:16.197Z,2.56
2022-12-11T13:59:39.219Z,2.6
2022-12-11T14:05:59.213Z,2.58
2022-12-11T14:12:22.248Z,2.52
2022-12-11T14:28:29.627Z,2.45
2022-12-11T14:34:49.189Z,2.49
2022-12-11T14:41:12.241Z,2.44
2022-12-11T14:47:32.212Z,2.39
2022-12-11T14:53:55.171Z,2.35
2022-12-11T15:00:15.303Z,2.27
2022-12-11T15:06:38.201Z,2.19
2022-12-11T15:12:58.184Z,2.15
2022-12-11T15:19:21.840Z,2.14
2022-12-11T15:25:41.178Z,2.11
2022-12-11T15:32:04.199Z,2.11
2022-12-11T15:38:24.148Z,2.09
2022-12-11T15:44:47.264Z,2.08
2022-12-11T15:51:07.232Z,1.98
2022-12-11T15:57:30.868Z,1.9
2022-12-11T16:03:51.205Z,1.83
2022-12-11T16:10:14.184Z,1.8
2022-12-11T16:16:34.516Z,1.84
2022-12-11T16:22:57.212Z,1.84
2022-12-11T16:29:17.171Z,1.81
2022-12-11T16:35:40.438Z,1.75
2022-12-11T16:42:00.315Z,1.71
2022-12-11T16:48:23.508Z,1.68
2022-12-11T16:54:44.239Z,1.66
2022-12-11T17:01:07.241Z,1.67
2022-12-11T17:07:27.210Z,1.7
2022-12-11T17:13:50.150Z,1.66
2022-12-11T17:20:10.450Z,1.61
2022-12-11T17:26:33.199Z,1.61
2022-12-11T17:32:54.298Z,1.57
2022-12-11T17:39:23.326Z,1.52
2022-12-11T17:45:43.117Z,1.52
2022-12-11T17:52:00.149Z,1.51
2022-12-11T17:58:20.364Z,1.47
2022-12-11T18:04:43.144Z,1.45
2022-12-11T18:11:03.181Z,1.48
2022-12-11T18:17:26.210Z,1.5
2022-12-11T18:23:46.210Z,1.55
2022-12-11T18:30:09.360Z,1.52
2022-12-11T18:36:29.181Z,1.45
2022-12-11T18:42:52.225Z,1.46
2022-12-11T18:49:12.154Z,1.47
2022-12-11T18:55:35.199Z,1.5
2022-12-11T19:01:55.206Z,1.52
2022-12-11T19:08:18.342Z,1.55
2022-12-11T19:32:07.692Z,1.48
2022-12-11T19:38:27.148Z,1.55
2022-12-11T19:44:50.170Z,1.55
2022-12-11T19:51:10.218Z,1.53
2022-12-11T19:57:33.279Z,1.49
2022-12-11T20:03:53.361Z,1.45
2022-12-11T20:10:16.253Z,1.36
2022-12-11T20:22:59.172Z,1.37
2022-12-11T20:29:24.489Z,1.36
2022-12-11T20:35:42.263Z,1.35
2022-12-11T20:42:02.172Z,1.33
2022-12-11T20:48:25.209Z,1.3
2022-12-11T20:54:45.201Z,1.3
2022-12-11T21:01:08.250Z,1.28
2022-12-11T21:07:28.354Z,1.18
2022-12-11T21:13:51.166Z,1.17
2022-12-11T21:20:11.160Z,1.14
2022-12-11T21:26:34.200Z,1.09
2022-12-11T21:32:54.179Z,1.11
2022-12-11T21:39:17.199Z,1.19
2022-12-11T21:46:00.167Z,1.2
2022-12-11T21:52:00.168Z,1.12
2022-12-11T21:58:20.216Z,1.12
2022-12-11T22:04:43.337Z,1.18
2022-12-11T22:11:03.208Z,1.18
2022-12-11T22:17:26.239Z,1.16
2022-12-11T22:23:46.282Z,1.19
2022-12-11T22:30:14.277Z,1.2
2022-12-11T22:36:29.195Z,1.18
2022-12-11T22:42:52.167Z,1.17
2022-12-11T22:49:12.185Z,1.17
2022-12-11T22:55:35.150Z,1.19
2022-12-11T23:19:49.187Z,1.04
2022-12-11T23:26:09.148Z,0.98
2022-12-11T23:32:32.237Z,1
2022-12-11T23:38:57.779Z,1.06
2022-12-11T23:45:15.581Z,1.08
2022-12-11T23:51:35.174Z,0.99
2022-12-11T23:57:58.235Z,0.91
